Terminal Aerodrome Forecast
Issued by NWS

Home | Current Version | Previous Version | Text Only | Print | Product List | Glossary On
Versions: 1 2 3 4 5 6 7 8 9 10 11 12 13 14 15 16 17 18 19 20 21 22 23 24 25 26 27 28 29 30 31 32
000
FTUS45 KREV 220800 AAC
TAFTRK
TAF AMD
KTRK 220853Z 2209/2306 VRB03KT P6SM SKC
     FM221000 00000KT 1/2SM FZFG BKN001
     FM221600 VRB04KT P6SM SCT040 SCT180
      AMD NOT SKED 2206/2212=

USA.gov is the U.S. government's official web portal to all federal, state and local government web resources and services.